Orofino, Idaho
Current Conditions -  °F | °C
As of 3:56 AM on Sunday 21 Dec 2014 (Local Time) from KLWS Reporting Station
Light Rain Light Rain  
Wind Chill: 60°   Ceiling: Unl
Heat Index: 60°   Visibility: 10mi
Dew Point: 41°   Wind: 35mph
Humidity: 49%   Direction: 280°W
Pressure: 29.54"   Gusts: 51mph
Location:  46.48°N, 116.26°W
Report Text: KLWS 211156Z AUTO 28030G44KT 10SM -RA SCT120 16/05 A2954 RMK AO2 PK WND 29044/1152 WSHFT 1049 RAB55 SLP002 P0000 60001 70041 T01560050 10156 20083 51005
Loading
Personal Weather Stations






























Interactive Weather Map New forecast layout! Learn more

10-Day Weather Forecast

Advertisements
Track Severe Weather on mobile